sensor_id;sensor_type;location;lat;lon;timestamp;noise_LAeq;noise_LA_min;noise_LA_max;noise_LA01;noise_LA95
67300;Laerm;57658;51.436;5.980;2023-02-15T00:00:05;51.31;28.64;65.34;;
67300;Laerm;57658;51.436;5.980;2023-02-15T00:00:18;44.66;29.77;59.73;;
67300;Laerm;57658;51.436;5.980;2023-02-15T00:00:28;30.93;29.52;33.38;;
67300;Laerm;57658;51.436;5.980;2023-02-15T00:00:39;34.05;28.95;45.58;;
67300;Laerm;57658;51.436;5.980;2023-02-15T00:00:49;34.54;28.33;46.70;;
67300;Laerm;57658;51.436;5.980;2023-02-15T00:01:06;32.90;29.12;46.43;;
67300;Laerm;57658;51.436;5.980;2023-02-15T00:01:16;39.08;29.46;55.31;;
67300;Laerm;57658;51.436;5.980;2023-02-15T00:01:27;35.64;30.34;49.21;;
67300;Laerm;57658;51.436;5.980;2023-02-15T00:01:37;36.83;28.96;51.31;;
67300;Laerm;57658;51.436;5.980;2023-02-15T00:01:48;30.95;29.02;36.13;;
67300;Laerm;57658;51.436;5.980;2023-02-15T00:01:58;41.41;30.03;52.70;;
67300;Laerm;57658;51.436;5.980;2023-02-15T00:02:09;39.93;31.47;54.74;;
67300;Laerm;57658;51.436;5.980;2023-02-15T00:02:19;47.94;37.03;60.35;;
67300;Laerm;57658;51.436;5.980;2023-02-15T00:02:30;65.19;52.49;72.30;;
67300;Laerm;57658;51.436;5.980;2023-02-15T00:02:40;49.39;42.33;57.17;;
67300;Laerm;57658;51.436;5.980;2023-02-15T00:02:50;44.07;38.36;53.29;;
67300;Laerm;57658;51.436;5.980;2023-02-15T00:03:00;37.91;32.81;41.69;;
67300;Laerm;57658;51.436;5.980;2023-02-15T00:03:11;35.15;32.40;37.93;;
67300;Laerm;57658;51.436;5.980;2023-02-15T00:03:21;33.45;30.05;38.62;;
67300;Laerm;57658;51.436;5.980;2023-02-15T00:03:31;31.92;29.59;35.15;;
67300;Laerm;57658;51.436;5.980;2023-02-15T00:03:42;31.34;29.51;33.72;;
67300;Laerm;57658;51.436;5.980;2023-02-15T00:03:52;30.92;29.39;34.09;;
67300;Laerm;57658;51.436;5.980;2023-02-15T00:04:03;31.94;29.22;37.27;;
67300;Laerm;57658;51.436;5.980;2023-02-15T00:04:14;31.00;28.94;37.24;;
67300;Laerm;57658;51.436;5.980;2023-02-15T00:04:25;31.21;29.15;36.59;;
67300;Laerm;57658;51.436;5.980;2023-02-15T00:04:55;38.29;29.49;51.03;;
67300;Laerm;57658;51.436;5.980;2023-02-15T00:05:06;56.00;43.27;74.04;;
67300;Laerm;57658;51.436;5.980;2023-02-15T00:05:16;66.41;52.16;76.22;;
67300;Laerm;57658;51.436;5.980;2023-02-15T00:05:27;63.31;34.60;72.76;;
67300;Laerm;57658;51.436;5.980;2023-02-15T00:05:39;42.71;34.34;51.08;;
67300;Laerm;57658;51.436;5.980;2023-02-15T00:05:49;38.40;32.36;46.37;;
67300;Laerm;57658;51.436;5.980;2023-02-15T00:05:59;35.80;33.37;38.75;;
67300;Laerm;57658;51.436;5.980;2023-02-15T00:06:10;66.18;32.93;77.09;;
67300;Laerm;57658;51.436;5.980;2023-02-15T00:06:20;72.79;64.71;77.86;;
67300;Laerm;57658;51.436;5.980;2023-02-15T00:06:32;63.68;54.08;76.63;;
67300;Laerm;57658;51.436;5.980;2023-02-15T00:06:42;59.00;53.56;60.94;;
67300;Laerm;57658;51.436;5.980;2023-02-15T00:06:52;59.41;54.08;61.69;;
67300;Laerm;57658;51.436;5.980;2023-02-15T00:07:02;81.51;57.13;89.76;;
67300;Laerm;57658;51.436;5.980;2023-02-15T00:07:16;86.98;75.35;95.31;;
67300;Laerm;57658;51.436;5.980;2023-02-15T00:07:26;65.90;52.38;78.67;;
67300;Laerm;57658;51.436;5.980;2023-02-15T00:07:37;51.65;47.04;56.07;;
67300;Laerm;57658;51.436;5.980;2023-02-15T00:07:47;46.56;43.45;51.06;;
67300;Laerm;57658;51.436;5.980;2023-02-15T00:07:57;43.17;39.86;47.19;;
67300;Laerm;57658;51.436;5.980;2023-02-15T00:08:08;42.51;38.74;46.48;;
67300;Laerm;57658;51.436;5.980;2023-02-15T00:08:18;39.82;37.29;42.59;;
67300;Laerm;57658;51.436;5.980;2023-02-15T00:08:28;38.70;34.41;43.35;;
67300;Laerm;57658;51.436;5.980;2023-02-15T00:08:38;39.02;35.98;41.86;;
67300;Laerm;57658;51.436;5.980;2023-02-15T00:08:49;38.46;34.93;43.63;;
67300;Laerm;57658;51.436;5.980;2023-02-15T00:08:59;35.23;32.01;37.87;;
67300;Laerm;57658;51.436;5.980;2023-02-15T00:09:10;32.23;30.40;34.32;;
67300;Laerm;57658;51.436;5.980;2023-02-15T00:09:20;32.05;30.21;34.79;;
67300;Laerm;57658;51.436;5.980;2023-02-15T00:09:31;32.17;30.01;34.73;;
67300;Laerm;57658;51.436;5.980;2023-02-15T00:09:41;30.17;28.75;32.18;;
67300;Laerm;57658;51.436;5.980;2023-02-15T00:09:52;30.58;29.05;32.92;;
67300;Laerm;57658;51.436;5.980;2023-02-15T00:10:02;30.41;28.88;31.79;;
67300;Laerm;57658;51.436;5.980;2023-02-15T00:10:12;30.21;28.37;31.74;;
67300;Laerm;57658;51.436;5.980;2023-02-15T00:10:24;30.18;28.94;33.65;;
67300;Laerm;57658;51.436;5.980;2023-02-15T00:10:34;30.80;28.91;33.14;;
67300;Laerm;57658;51.436;5.980;2023-02-15T00:10:44;30.03;28.36;31.48;;
67300;Laerm;57658;51.436;5.980;2023-02-15T00:11:10;30.08;28.54;31.57;;
67300;Laerm;57658;51.436;5.980;2023-02-15T00:11:21;30.27;28.21;31.91;;
67300;Laerm;57658;51.436;5.980;2023-02-15T00:11:50;30.83;29.29;32.54;;
67300;Laerm;57658;51.436;5.980;2023-02-15T00:12:00;30.49;28.46;33.08;;
67300;Laerm;57658;51.436;5.980;2023-02-15T00:12:10;30.13;28.07;31.63;;
67300;Laerm;57658;51.436;5.980;2023-02-15T00:12:21;30.01;28.60;31.70;;
67300;Laerm;57658;51.436;5.980;2023-02-15T00:12:31;30.33;28.99;31.85;;
67300;Laerm;57658;51.436;5.980;2023-02-15T00:12:41;30.25;28.43;31.49;;
67300;Laerm;57658;51.436;5.980;2023-02-15T00:12:52;30.44;28.95;31.99;;
67300;Laerm;57658;51.436;5.980;2023-02-15T00:13:02;30.39;28.87;32.00;;
67300;Laerm;57658;51.436;5.980;2023-02-15T00:13:12;30.91;29.39;33.20;;
67300;Laerm;57658;51.436;5.980;2023-02-15T00:13:22;31.01;29.44;32.67;;
67300;Laerm;57658;51.436;5.980;2023-02-15T00:13:33;32.59;30.29;34.51;;
67300;Laerm;57658;51.436;5.980;2023-02-15T00:13:45;33.76;31.93;35.71;;
67300;Laerm;57658;51.436;5.980;2023-02-15T00:13:55;35.83;32.79;41.59;;
67300;Laerm;57658;51.436;5.980;2023-02-15T00:14:28;68.09;55.39;78.53;;
67300;Laerm;57658;51.436;5.980;2023-02-15T00:14:39;59.85;55.57;61.61;;
67300;Laerm;57658;51.436;5.980;2023-02-15T00:14:49;59.92;56.05;61.46;;
67300;Laerm;57658;51.436;5.980;2023-02-15T00:14:59;75.98;56.90;83.96;;
67300;Laerm;57658;51.436;5.980;2023-02-15T00:15:09;82.14;78.39;85.54;;
67300;Laerm;57658;51.436;5.980;2023-02-15T00:15:21;82.38;79.36;85.57;;
67300;Laerm;57658;51.436;5.980;2023-02-15T00:15:31;78.15;58.59;85.73;;
67300;Laerm;57658;51.436;5.980;2023-02-15T00:15:41;54.11;45.64;61.91;;
67300;Laerm;57658;51.436;5.980;2023-02-15T00:15:52;45.65;41.87;51.29;;
67300;Laerm;57658;51.436;5.980;2023-02-15T00:16:02;40.54;36.28;45.86;;
67300;Laerm;57658;51.436;5.980;2023-02-15T00:16:13;39.46;36.78;42.96;;
67300;Laerm;57658;51.436;5.980;2023-02-15T00:16:23;42.40;39.69;45.32;;
67300;Laerm;57658;51.436;5.980;2023-02-15T00:16:33;42.24;39.66;44.33;;
67300;Laerm;57658;51.436;5.980;2023-02-15T00:16:44;41.46;37.35;45.01;;
67300;Laerm;57658;51.436;5.980;2023-02-15T00:16:54;38.24;35.10;41.27;;
67300;Laerm;57658;51.436;5.980;2023-02-15T00:17:05;35.66;33.23;38.36;;
67300;Laerm;57658;51.436;5.980;2023-02-15T00:17:15;33.05;29.80;36.58;;
67300;Laerm;57658;51.436;5.980;2023-02-15T00:17:28;31.78;29.40;35.31;;
67300;Laerm;57658;51.436;5.980;2023-02-15T00:17:39;30.99;29.45;32.55;;
67300;Laerm;57658;51.436;5.980;2023-02-15T00:17:49;31.15;28.81;32.67;;
67300;Laerm;57658;51.436;5.980;2023-02-15T00:17:59;30.88;29.43;32.63;;
67300;Laerm;57658;51.436;5.980;2023-02-15T00:18:09;30.52;29.07;32.61;;
67300;Laerm;57658;51.436;5.980;2023-02-15T00:18:20;30.40;29.01;31.70;;
67300;Laerm;57658;51.436;5.980;2023-02-15T00:18:30;30.44;29.05;32.29;;
67300;Laerm;57658;51.436;5.980;2023-02-15T00:18:41;30.84;29.04;43.87;;
67300;Laerm;57658;51.436;5.980;2023-02-15T00:18:51;31.84;29.94;34.09;;
67300;Laerm;57658;51.436;5.980;2023-02-15T00:19:02;32.08;30.02;35.02;;
67300;Laerm;57658;51.436;5.980;2023-02-15T00:19:12;35.79;30.96;42.01;;
67300;Laerm;57658;51.436;5.980;2023-02-15T00:19:23;37.75;31.14;47.45;;
67300;Laerm;57658;51.436;5.980;2023-02-15T00:19:33;32.10;29.78;36.53;;
67300;Laerm;57658;51.436;5.980;2023-02-15T00:19:43;36.64;30.22;49.53;;
67300;Laerm;57658;51.436;5.980;2023-02-15T00:19:54;31.47;29.01;36.62;;
67300;Laerm;57658;51.436;5.980;2023-02-15T00:20:04;31.13;28.71;34.41;;
67300;Laerm;57658;51.436;5.980;2023-02-15T00:20:15;30.24;28.98;31.77;;
67300;Laerm;57658;51.436;5.980;2023-02-15T00:20:25;30.32;28.97;32.89;;
67300;Laerm;57658;51.436;5.980;2023-02-15T00:20:35;29.97;28.50;31.46;;
67300;Laerm;57658;51.436;5.980;2023-02-15T00:20:45;34.46;28.83;48.88;;
67300;Laerm;57658;51.436;5.980;2023-02-15T00:20:56;30.00;28.65;32.08;;
67300;Laerm;57658;51.436;5.980;2023-02-15T00:21:07;30.52;28.59;33.42;;
67300;Laerm;57658;51.436;5.980;2023-02-15T00:21:18;29.94;28.21;31.44;;
67300;Laerm;57658;51.436;5.980;2023-02-15T00:21:32;29.88;28.46;32.44;;
67300;Laerm;57658;51.436;5.980;2023-02-15T00:21:43;29.92;28.36;34.34;;
67300;Laerm;57658;51.436;5.980;2023-02-15T00:21:53;29.67;28.53;31.18;;
67300;Laerm;57658;51.436;5.980;2023-02-15T00:22:04;37.85;28.53;50.55;;
67300;Laerm;57658;51.436;5.980;2023-02-15T00:22:14;35.59;28.73;49.82;;
67300;Laerm;57658;51.436;5.980;2023-02-15T00:22:25;32.78;28.37;46.36;;
67300;Laerm;57658;51.436;5.980;2023-02-15T00:22:35;29.69;28.52;32.28;;
67300;Laerm;57658;51.436;5.980;2023-02-15T00:22:45;29.34;28.06;30.99;;
67300;Laerm;57658;51.436;5.980;2023-02-15T00:22:56;29.67;28.33;33.39;;
67300;Laerm;57658;51.436;5.980;2023-02-15T00:23:06;30.60;28.95;32.97;;
67300;Laerm;57658;51.436;5.980;2023-02-15T00:23:16;30.70;29.15;32.33;;
67300;Laerm;57658;51.436;5.980;2023-02-15T00:23:26;30.71;29.13;31.99;;
67300;Laerm;57658;51.436;5.980;2023-02-15T00:23:37;30.49;29.04;32.73;;
67300;Laerm;57658;51.436;5.980;2023-02-15T00:23:47;30.41;29.14;32.58;;
67300;Laerm;57658;51.436;5.980;2023-02-15T00:23:58;30.24;28.79;31.57;;
67300;Laerm;57658;51.436;5.980;2023-02-15T00:24:09;30.49;28.79;32.72;;
67300;Laerm;57658;51.436;5.980;2023-02-15T00:24:21;36.85;29.23;51.19;;
67300;Laerm;57658;51.436;5.980;2023-02-15T00:24:31;35.31;28.76;48.16;;
67300;Laerm;57658;51.436;5.980;2023-02-15T00:24:42;29.88;28.66;31.35;;
67300;Laerm;57658;51.436;5.980;2023-02-15T00:24:52;29.53;28.21;31.09;;
67300;Laerm;57658;51.436;5.980;2023-02-15T00:25:02;29.66;28.24;31.28;;
67300;Laerm;57658;51.436;5.980;2023-02-15T00:25:13;29.90;28.49;31.53;;
67300;Laerm;57658;51.436;5.980;2023-02-15T00:25:24;29.89;28.39;31.46;;
67300;Laerm;57658;51.436;5.980;2023-02-15T00:25:34;33.70;28.85;47.23;;
67300;Laerm;57658;51.436;5.980;2023-02-15T00:25:44;35.06;29.02;47.24;;
67300;Laerm;57658;51.436;5.980;2023-02-15T00:26:13;33.38;28.87;44.40;;
67300;Laerm;57658;51.436;5.980;2023-02-15T00:26:23;30.65;28.62;40.44;;
67300;Laerm;57658;51.436;5.980;2023-02-15T00:26:33;30.12;28.94;31.73;;
67300;Laerm;57658;51.436;5.980;2023-02-15T00:26:44;30.74;28.49;44.44;;
67300;Laerm;57658;51.436;5.980;2023-02-15T00:26:55;37.99;28.13;51.46;;
67300;Laerm;57658;51.436;5.980;2023-02-15T00:27:05;33.04;28.52;49.88;;
67300;Laerm;57658;51.436;5.980;2023-02-15T00:27:15;30.09;28.07;39.73;;
67300;Laerm;57658;51.436;5.980;2023-02-15T00:27:26;30.43;28.58;37.24;;
67300;Laerm;57658;51.436;5.980;2023-02-15T00:27:36;29.71;28.25;31.07;;
67300;Laerm;57658;51.436;5.980;2023-02-15T00:27:46;29.95;28.41;32.87;;
67300;Laerm;57658;51.436;5.980;2023-02-15T00:27:57;29.99;28.62;31.71;;
67300;Laerm;57658;51.436;5.980;2023-02-15T00:28:07;29.95;28.54;31.46;;
67300;Laerm;57658;51.436;5.980;2023-02-15T00:28:17;30.28;29.06;31.56;;
67300;Laerm;57658;51.436;5.980;2023-02-15T00:28:27;36.22;28.78;51.45;;
67300;Laerm;57658;51.436;5.980;2023-02-15T00:28:38;30.29;28.38;43.62;;
67300;Laerm;57658;51.436;5.980;2023-02-15T00:28:48;29.64;28.42;31.03;;
67300;Laerm;57658;51.436;5.980;2023-02-15T00:28:59;38.51;28.49;55.84;;
67300;Laerm;57658;51.436;5.980;2023-02-15T00:29:10;43.85;28.71;58.55;;
67300;Laerm;57658;51.436;5.980;2023-02-15T00:29:21;40.58;28.77;57.61;;
67300;Laerm;57658;51.436;5.980;2023-02-15T00:29:31;30.15;28.62;31.31;;
67300;Laerm;57658;51.436;5.980;2023-02-15T00:29:42;30.26;28.88;32.11;;
67300;Laerm;57658;51.436;5.980;2023-02-15T00:29:52;30.34;29.09;32.12;;
67300;Laerm;57658;51.436;5.980;2023-02-15T00:30:02;30.84;29.10;32.62;;
67300;Laerm;57658;51.436;5.980;2023-02-15T00:30:13;30.90;29.05;33.71;;
67300;Laerm;57658;51.436;5.980;2023-02-15T00:30:23;31.59;28.70;33.95;;
67300;Laerm;57658;51.436;5.980;2023-02-15T00:30:33;33.72;31.02;35.88;;
67300;Laerm;57658;51.436;5.980;2023-02-15T00:30:43;34.84;31.33;39.18;;
67300;Laerm;57658;51.436;5.980;2023-02-15T00:30:54;32.64;30.19;35.14;;
67300;Laerm;57658;51.436;5.980;2023-02-15T00:31:08;51.81;29.22;66.82;;
67300;Laerm;57658;51.436;5.980;2023-02-15T00:31:19;40.18;29.50;55.75;;
67300;Laerm;57658;51.436;5.980;2023-02-15T00:31:30;31.14;29.57;32.88;;
67300;Laerm;57658;51.436;5.980;2023-02-15T00:31:41;30.66;29.21;34.21;;
67300;Laerm;57658;51.436;5.980;2023-02-15T00:31:51;30.58;28.91;32.41;;
67300;Laerm;57658;51.436;5.980;2023-02-15T00:32:02;30.77;29.11;32.21;;
67300;Laerm;57658;51.436;5.980;2023-02-15T00:32:12;31.72;29.41;34.83;;
67300;Laerm;57658;51.436;5.980;2023-02-15T00:32:23;31.39;29.55;33.00;;
67300;Laerm;57658;51.436;5.980;2023-02-15T00:32:33;30.71;29.04;32.38;;
67300;Laerm;57658;51.436;5.980;2023-02-15T00:32:43;30.16;28.75;31.86;;
67300;Laerm;57658;51.436;5.980;2023-02-15T00:32:53;30.03;28.90;31.52;;
67300;Laerm;57658;51.436;5.980;2023-02-15T00:33:04;29.77;28.49;31.02;;
67300;Laerm;57658;51.436;5.980;2023-02-15T00:33:14;30.77;29.04;35.22;;
67300;Laerm;57658;51.436;5.980;2023-02-15T00:33:24;31.43;29.58;35.24;;
67300;Laerm;57658;51.436;5.980;2023-02-15T00:33:36;31.87;29.78;37.46;;
67300;Laerm;57658;51.436;5.980;2023-02-15T00:33:46;32.89;29.96;38.83;;
67300;Laerm;57658;51.436;5.980;2023-02-15T00:34:07;30.98;29.47;32.99;;
67300;Laerm;57658;51.436;5.980;2023-02-15T00:34:19;31.59;29.60;34.25;;
67300;Laerm;57658;51.436;5.980;2023-02-15T00:34:29;37.98;30.72;51.95;;
67300;Laerm;57658;51.436;5.980;2023-02-15T00:34:40;44.88;29.68;59.02;;
67300;Laerm;57658;51.436;5.980;2023-02-15T00:34:50;42.22;29.71;58.88;;
67300;Laerm;57658;51.436;5.980;2023-02-15T00:35:00;43.92;30.63;57.26;;
67300;Laerm;57658;51.436;5.980;2023-02-15T00:35:10;41.26;33.18;55.15;;
67300;Laerm;57658;51.436;5.980;2023-02-15T00:35:21;70.61;33.38;77.22;;
67300;Laerm;57658;51.436;5.980;2023-02-15T00:35:31;71.21;51.48;77.34;;
67300;Laerm;57658;51.436;5.980;2023-02-15T00:35:41;58.26;51.49;60.24;;
67300;Laerm;57658;51.436;5.980;2023-02-15T00:35:55;58.32;51.90;60.28;;
67300;Laerm;57658;51.436;5.980;2023-02-15T00:36:06;76.22;52.65;87.04;;
67300;Laerm;57658;51.436;5.980;2023-02-15T00:36:17;80.83;76.93;84.40;;
67300;Laerm;57658;51.436;5.980;2023-02-15T00:36:27;80.59;65.78;84.99;;
67300;Laerm;57658;51.436;5.980;2023-02-15T00:36:38;60.93;47.38;70.71;;
67300;Laerm;57658;51.436;5.980;2023-02-15T00:36:48;46.22;39.64;51.99;;
67300;Laerm;57658;51.436;5.980;2023-02-15T00:36:59;41.41;38.43;51.58;;
67300;Laerm;57658;51.436;5.980;2023-02-15T00:37:09;38.92;36.32;40.98;;
67300;Laerm;57658;51.436;5.980;2023-02-15T00:37:19;36.80;34.21;39.09;;
67300;Laerm;57658;51.436;5.980;2023-02-15T00:37:29;37.49;35.37;39.56;;
67300;Laerm;57658;51.436;5.980;2023-02-15T00:37:40;35.97;32.64;39.91;;
67300;Laerm;57658;51.436;5.980;2023-02-15T00:37:50;34.06;31.62;37.03;;
67300;Laerm;57658;51.436;5.980;2023-02-15T00:38:02;33.93;31.39;36.23;;
67300;Laerm;57658;51.436;5.980;2023-02-15T00:38:12;32.78;30.64;35.09;;
67300;Laerm;57658;51.436;5.980;2023-02-15T00:38:23;32.35;30.44;37.17;;
67300;Laerm;57658;51.436;5.980;2023-02-15T00:38:33;31.34;29.77;32.81;;
67300;Laerm;57658;51.436;5.980;2023-02-15T00:38:44;31.04;29.49;32.91;;
67300;Laerm;57658;51.436;5.980;2023-02-15T00:38:54;31.16;29.69;32.59;;
67300;Laerm;57658;51.436;5.980;2023-02-15T00:39:04;31.24;29.36;32.79;;
67300;Laerm;57658;51.436;5.980;2023-02-15T00:39:15;31.48;29.74;33.27;;
67300;Laerm;57658;51.436;5.980;2023-02-15T00:39:26;31.13;29.71;33.03;;
67300;Laerm;57658;51.436;5.980;2023-02-15T00:39:37;31.04;29.42;32.58;;
67300;Laerm;57658;51.436;5.980;2023-02-15T00:39:47;31.32;29.78;32.83;;
67300;Laerm;57658;51.436;5.980;2023-02-15T00:39:57;32.43;30.20;34.49;;
67300;Laerm;57658;51.436;5.980;2023-02-15T00:40:08;36.12;31.02;45.00;;
67300;Laerm;57658;51.436;5.980;2023-02-15T00:40:19;34.52;30.80;38.53;;
67300;Laerm;57658;51.436;5.980;2023-02-15T00:40:29;32.49;30.77;35.73;;
67300;Laerm;57658;51.436;5.980;2023-02-15T00:40:39;32.60;31.27;34.01;;
67300;Laerm;57658;51.436;5.980;2023-02-15T00:40:55;33.20;31.61;34.64;;
67300;Laerm;57658;51.436;5.980;2023-02-15T00:41:06;32.89;30.33;35.33;;
67300;Laerm;57658;51.436;5.980;2023-02-15T00:41:16;31.05;29.53;32.55;;
67300;Laerm;57658;51.436;5.980;2023-02-15T00:41:26;31.55;29.36;41.53;;
67300;Laerm;57658;51.436;5.980;2023-02-15T00:41:37;30.93;29.46;32.64;;
67300;Laerm;57658;51.436;5.980;2023-02-15T00:41:47;32.93;29.48;42.87;;
67300;Laerm;57658;51.436;5.980;2023-02-15T00:41:58;31.06;29.70;32.69;;
67300;Laerm;57658;51.436;5.980;2023-02-15T00:42:08;31.05;29.30;32.64;;
67300;Laerm;57658;51.436;5.980;2023-02-15T00:42:19;32.67;30.21;35.23;;
67300;Laerm;57658;51.436;5.980;2023-02-15T00:42:29;35.86;33.11;39.69;;
67300;Laerm;57658;51.436;5.980;2023-02-15T00:42:39;39.97;36.54;43.25;;
67300;Laerm;57658;51.436;5.980;2023-02-15T00:42:49;52.31;40.82;59.51;;
67300;Laerm;57658;51.436;5.980;2023-02-15T00:43:00;63.06;49.80;69.00;;
67300;Laerm;57658;51.436;5.980;2023-02-15T00:43:10;45.72;34.51;54.03;;
67300;Laerm;57658;51.436;5.980;2023-02-15T00:43:21;35.16;30.75;42.87;;
67300;Laerm;57658;51.436;5.980;2023-02-15T00:43:31;32.21;29.35;43.58;;
67300;Laerm;57658;51.436;5.980;2023-02-15T00:43:42;30.62;29.17;32.38;;
67300;Laerm;57658;51.436;5.980;2023-02-15T00:43:52;31.10;29.25;32.60;;
67300;Laerm;57658;51.436;5.980;2023-02-15T00:44:03;32.64;30.61;34.72;;
67300;Laerm;57658;51.436;5.980;2023-02-15T00:44:13;35.34;32.52;38.09;;
67300;Laerm;57658;51.436;5.980;2023-02-15T00:44:24;38.83;35.59;41.33;;
67300;Laerm;57658;51.436;5.980;2023-02-15T00:44:34;72.20;36.63;77.31;;
67300;Laerm;57658;51.436;5.980;2023-02-15T00:44:44;68.98;54.61;77.01;;
67300;Laerm;57658;51.436;5.980;2023-02-15T00:44:55;58.99;54.39;60.64;;
67300;Laerm;57658;51.436;5.980;2023-02-15T00:45:05;59.06;54.56;60.70;;
67300;Laerm;57658;51.436;5.980;2023-02-15T00:45:15;59.49;54.57;61.85;;
67300;Laerm;57658;51.436;5.980;2023-02-15T00:45:26;82.20;58.68;90.37;;
67300;Laerm;57658;51.436;5.980;2023-02-15T00:45:36;83.45;80.39;88.56;;
67300;Laerm;57658;51.436;5.980;2023-02-15T00:45:47;81.15;58.74;89.82;;
67300;Laerm;57658;51.436;5.980;2023-02-15T00:45:57;55.42;47.29;62.32;;
67300;Laerm;57658;51.436;5.980;2023-02-15T00:46:07;47.05;42.21;56.96;;
67300;Laerm;57658;51.436;5.980;2023-02-15T00:46:18;42.18;37.78;49.77;;
67300;Laerm;57658;51.436;5.980;2023-02-15T00:46:28;39.96;37.72;43.41;;
67300;Laerm;57658;51.436;5.980;2023-02-15T00:46:39;38.78;35.69;40.95;;
67300;Laerm;57658;51.436;5.980;2023-02-15T00:46:49;38.95;36.40;41.09;;
67300;Laerm;57658;51.436;5.980;2023-02-15T00:46:59;37.12;34.17;40.32;;
67300;Laerm;57658;51.436;5.980;2023-02-15T00:47:09;36.75;33.87;39.64;;
67300;Laerm;57658;51.436;5.980;2023-02-15T00:47:20;35.36;31.75;44.14;;
67300;Laerm;57658;51.436;5.980;2023-02-15T00:47:30;33.48;30.07;36.75;;
67300;Laerm;57658;51.436;5.980;2023-02-15T00:47:40;31.80;30.04;33.93;;
67300;Laerm;57658;51.436;5.980;2023-02-15T00:47:50;30.84;29.36;37.62;;
67300;Laerm;57658;51.436;5.980;2023-02-15T00:48:01;30.83;29.33;32.82;;
67300;Laerm;57658;51.436;5.980;2023-02-15T00:48:11;31.23;28.99;34.75;;
67300;Laerm;57658;51.436;5.980;2023-02-15T00:48:21;30.69;29.36;32.64;;
67300;Laerm;57658;51.436;5.980;2023-02-15T00:48:32;31.87;28.70;40.90;;
67300;Laerm;57658;51.436;5.980;2023-02-15T00:48:42;30.27;28.99;31.78;;
67300;Laerm;57658;51.436;5.980;2023-02-15T00:48:53;31.10;29.29;33.80;;
67300;Laerm;57658;51.436;5.980;2023-02-15T00:49:03;31.41;29.19;34.48;;
67300;Laerm;57658;51.436;5.980;2023-02-15T00:49:14;31.88;29.76;38.47;;
67300;Laerm;57658;51.436;5.980;2023-02-15T00:49:24;30.99;28.92;33.79;;
67300;Laerm;57658;51.436;5.980;2023-02-15T00:49:34;34.97;29.09;51.69;;
67300;Laerm;57658;51.436;5.980;2023-02-15T00:49:44;38.24;28.68;55.69;;
67300;Laerm;57658;51.436;5.980;2023-02-15T00:49:55;35.43;28.71;51.46;;
67300;Laerm;57658;51.436;5.980;2023-02-15T00:50:05;37.37;28.80;55.74;;
67300;Laerm;57658;51.436;5.980;2023-02-15T00:50:16;36.95;28.70;52.18;;
67300;Laerm;57658;51.436;5.980;2023-02-15T00:50:26;35.68;28.66;49.80;;
67300;Laerm;57658;51.436;5.980;2023-02-15T00:50:36;38.72;28.41;52.60;;
67300;Laerm;57658;51.436;5.980;2023-02-15T00:50:48;34.58;28.40;50.00;;
67300;Laerm;57658;51.436;5.980;2023-02-15T00:50:59;31.35;28.98;40.37;;
67300;Laerm;57658;51.436;5.980;2023-02-15T00:51:10;31.01;29.30;33.08;;
67300;Laerm;57658;51.436;5.980;2023-02-15T00:51:20;30.44;29.29;32.02;;
67300;Laerm;57658;51.436;5.980;2023-02-15T00:51:31;30.26;28.99;31.66;;
67300;Laerm;57658;51.436;5.980;2023-02-15T00:51:41;29.98;28.61;31.18;;
67300;Laerm;57658;51.436;5.980;2023-02-15T00:51:51;29.74;28.05;31.10;;
67300;Laerm;57658;51.436;5.980;2023-02-15T00:52:02;29.87;28.35;31.39;;
67300;Laerm;57658;51.436;5.980;2023-02-15T00:52:12;30.74;29.17;33.53;;
67300;Laerm;57658;51.436;5.980;2023-02-15T00:52:22;30.55;29.25;32.22;;
67300;Laerm;57658;51.436;5.980;2023-02-15T00:52:33;30.69;28.86;33.91;;
67300;Laerm;57658;51.436;5.980;2023-02-15T00:52:43;30.55;28.87;32.31;;
67300;Laerm;57658;51.436;5.980;2023-02-15T00:52:53;29.97;28.54;31.54;;
67300;Laerm;57658;51.436;5.980;2023-02-15T00:53:03;29.67;28.29;31.51;;
67300;Laerm;57658;51.436;5.980;2023-02-15T00:53:14;30.19;28.71;31.16;;
67300;Laerm;57658;51.436;5.980;2023-02-15T00:53:25;29.88;28.55;31.00;;
67300;Laerm;57658;51.436;5.980;2023-02-15T00:53:35;29.95;28.55;31.18;;
67300;Laerm;57658;51.436;5.980;2023-02-15T00:53:45;29.61;28.14;30.99;;
67300;Laerm;57658;51.436;5.980;2023-02-15T00:53:56;29.69;28.69;30.86;;
67300;Laerm;57658;51.436;5.980;2023-02-15T00:54:06;29.65;28.61;30.79;;
67300;Laerm;57658;51.436;5.980;2023-02-15T00:54:16;29.69;28.02;31.16;;
67300;Laerm;57658;51.436;5.980;2023-02-15T00:54:26;30.71;28.33;40.65;;
67300;Laerm;57658;51.436;5.980;2023-02-15T00:54:37;34.18;28.81;46.83;;
67300;Laerm;57658;51.436;5.980;2023-02-15T00:54:48;33.07;28.46;46.01;;
67300;Laerm;57658;51.436;5.980;2023-02-15T00:54:58;33.80;28.32;45.79;;
67300;Laerm;57658;51.436;5.980;2023-02-15T00:55:09;34.55;28.66;43.95;;
67300;Laerm;57658;51.436;5.980;2023-02-15T00:55:19;31.35;28.53;44.24;;
67300;Laerm;57658;51.436;5.980;2023-02-15T00:55:29;33.63;28.71;47.37;;
67300;Laerm;57658;51.436;5.980;2023-02-15T00:55:39;32.33;28.53;44.89;;
67300;Laerm;57658;51.436;5.980;2023-02-15T00:55:50;31.40;29.17;38.20;;
67300;Laerm;57658;51.436;5.980;2023-02-15T00:56:00;30.17;28.83;32.16;;
67300;Laerm;57658;51.436;5.980;2023-02-15T00:56:11;29.79;28.54;31.22;;
67300;Laerm;57658;51.436;5.980;2023-02-15T00:56:21;29.60;28.39;30.82;;
67300;Laerm;57658;51.436;5.980;2023-02-15T00:56:31;29.51;28.50;30.75;;
67300;Laerm;57658;51.436;5.980;2023-02-15T00:56:41;29.50;28.24;31.15;;
67300;Laerm;57658;51.436;5.980;2023-02-15T00:56:52;29.42;28.16;30.97;;
67300;Laerm;57658;51.436;5.980;2023-02-15T00:57:02;30.06;28.55;31.53;;
67300;Laerm;57658;51.436;5.980;2023-02-15T00:57:12;29.98;28.71;31.41;;
67300;Laerm;57658;51.436;5.980;2023-02-15T00:57:23;29.49;28.24;31.52;;
67300;Laerm;57658;51.436;5.980;2023-02-15T00:57:33;29.35;28.21;30.60;;
67300;Laerm;57658;51.436;5.980;2023-02-15T00:57:43;29.47;28.22;30.81;;
67300;Laerm;57658;51.436;5.980;2023-02-15T00:57:53;29.94;28.66;31.22;;
67300;Laerm;57658;51.436;5.980;2023-02-15T00:58:04;30.53;29.28;32.88;;
67300;Laerm;57658;51.436;5.980;2023-02-15T00:58:14;30.90;29.40;32.57;;
67300;Laerm;57658;51.436;5.980;2023-02-15T00:58:24;32.08;29.66;34.91;;
67300;Laerm;57658;51.436;5.980;2023-02-15T00:58:35;35.30;32.87;38.13;;
67300;Laerm;57658;51.436;5.980;2023-02-15T00:58:45;33.48;29.95;36.81;;
67300;Laerm;57658;51.436;5.980;2023-02-15T00:58:55;35.85;30.27;47.16;;
67300;Laerm;57658;51.436;5.980;2023-02-15T00:59:06;31.62;29.94;34.11;;
67300;Laerm;57658;51.436;5.980;2023-02-15T00:59:16;31.86;29.90;34.03;;
67300;Laerm;57658;51.436;5.980;2023-02-15T00:59:26;33.14;31.56;34.84;;
67300;Laerm;57658;51.436;5.980;2023-02-15T00:59:36;33.56;30.91;35.40;;
67300;Laerm;57658;51.436;5.980;2023-02-15T00:59:47;34.18;31.93;35.91;;
67300;Laerm;57658;51.436;5.980;2023-02-15T00:59:57;36.55;32.84;40.67;;
67300;Laerm;57658;51.436;5.980;2023-02-15T01:00:07;50.20;37.24;66.58;;
67300;Laerm;57658;51.436;5.980;2023-02-15T01:00:18;72.37;41.52;77.44;;
67300;Laerm;57658;51.436;5.980;2023-02-15T01:00:28;69.52;53.89;77.47;;
67300;Laerm;57658;51.436;5.980;2023-02-15T01:00:38;59.06;53.57;60.77;;